createdAt,value
2018-01-20T12:14:52.046Z,16.00
2018-01-20T12:15:52.029Z,12.00
2018-01-20T12:16:52.043Z,80.00
2018-01-20T12:18:15.132Z,616.00
2018-01-20T12:19:15.344Z,728.00
2018-01-20T12:20:15.169Z,236.00
2018-01-20T12:21:15.165Z,588.00
2018-01-20T12:22:15.197Z,588.00
2018-01-20T12:23:15.208Z,580.00
2018-01-20T12:24:15.335Z,564.00
2018-01-20T12:25:15.155Z,548.00
2018-01-20T12:26:15.220Z,540.00
2018-01-20T12:27:15.201Z,540.00
2018-01-20T12:28:15.126Z,540.00
2018-01-20T12:29:16.139Z,540.00
2018-01-20T12:30:15.225Z,532.00
2018-01-20T12:31:16.009Z,540.00
2018-01-20T12:32:15.647Z,552.00
2018-01-20T12:33:16.376Z,560.00
2018-01-20T12:34:15.508Z,564.00
2018-01-20T12:35:15.219Z,556.00
2018-01-20T12:36:15.131Z,556.00
2018-01-20T12:37:15.133Z,560.00
2018-01-20T12:38:15.126Z,572.00
2018-01-20T12:39:15.197Z,588.00
2018-01-20T12:40:15.228Z,604.00
2018-01-20T12:41:15.134Z,620.00
2018-01-20T12:42:15.093Z,628.00
2018-01-20T12:43:15.086Z,632.00
2018-01-20T12:44:15.132Z,620.00
2018-01-20T12:45:15.118Z,616.00
2018-01-20T12:46:15.110Z,620.00
2018-01-20T12:47:15.306Z,620.00
2018-01-20T12:48:15.747Z,616.00
2018-01-20T12:49:15.052Z,600.00
2018-01-20T12:50:15.121Z,576.00
2018-01-20T12:51:15.736Z,568.00
2018-01-20T12:52:15.748Z,580.00
2018-01-20T12:53:15.039Z,604.00
2018-01-20T12:54:15.054Z,636.00
2018-01-20T12:55:31.236Z,648.00
2018-01-20T12:56:15.230Z,660.00
2018-01-20T12:57:15.035Z,640.00
2018-01-20T12:58:15.144Z,620.00
2018-01-20T12:59:15.010Z,584.00
2018-01-20T13:00:14.999Z,548.00
2018-01-20T13:01:15.009Z,480.00
2018-01-20T13:02:15.069Z,444.00
2018-01-20T13:03:14.985Z,416.00
2018-01-20T13:04:14.990Z,392.00
2018-01-20T13:05:15.085Z,376.00
2018-01-20T13:06:15.070Z,372.00
2018-01-20T13:07:15.008Z,364.00
2018-01-20T13:08:15.012Z,364.00
2018-01-20T13:09:15.106Z,360.00
2018-01-20T13:10:15.092Z,368.00
2018-01-20T13:11:14.997Z,368.00
2018-01-20T13:12:15.021Z,352.00
2018-01-20T13:13:14.922Z,344.00
2018-01-20T13:14:14.916Z,336.00
2018-01-20T13:15:15.714Z,320.00
2018-01-20T13:16:14.932Z,328.00
2018-01-20T13:17:14.938Z,316.00
2018-01-20T13:18:14.934Z,316.00
2018-01-20T13:19:14.914Z,328.00
2018-01-20T13:20:14.929Z,336.00
2018-01-20T13:21:14.914Z,336.00
2018-01-20T13:22:14.937Z,336.00
2018-01-20T13:23:15.157Z,356.00
2018-01-20T13:24:14.859Z,368.00
2018-01-20T13:25:14.920Z,352.00
2018-01-20T13:26:14.871Z,340.00
2018-01-20T13:27:14.897Z,344.00
2018-01-20T13:28:14.848Z,368.00
2018-01-20T13:29:14.861Z,368.00
2018-01-20T13:30:14.873Z,372.00
2018-01-20T13:31:14.828Z,376.00
2018-01-20T13:32:14.806Z,364.00
2018-01-20T13:33:14.834Z,352.00
2018-01-20T13:34:14.815Z,352.00
2018-01-20T13:35:14.809Z,328.00
2018-01-20T13:36:14.829Z,300.00
2018-01-20T13:37:14.792Z,272.00
2018-01-20T13:38:14.829Z,268.00
2018-01-20T13:39:14.814Z,264.00
2018-01-20T13:40:14.840Z,256.00
2018-01-20T13:41:14.784Z,248.00
2018-01-20T13:42:14.804Z,252.00
2018-01-20T13:43:15.244Z,248.00
2018-01-20T13:44:15.848Z,240.00
2018-01-20T13:45:15.713Z,240.00
2018-01-20T13:46:15.792Z,248.00
2018-01-20T13:47:14.750Z,264.00
2018-01-20T13:48:14.759Z,280.00
2018-01-20T13:49:14.762Z,272.00
2018-01-20T13:50:14.702Z,272.00
2018-01-20T13:51:14.714Z,264.00
2018-01-20T13:52:15.428Z,256.00
2018-01-20T13:53:14.706Z,240.00
2018-01-20T13:54:14.676Z,232.00
2018-01-20T13:55:14.776Z,240.00
2018-01-20T13:56:15.686Z,248.00
2018-01-20T13:57:14.700Z,252.00
2018-01-20T13:58:14.681Z,252.00
2018-01-20T13:59:14.652Z,252.00
2018-01-20T14:00:14.665Z,240.00
2018-01-20T14:01:14.642Z,228.00
2018-01-20T14:02:14.663Z,220.00
2018-01-20T14:03:14.676Z,208.00
2018-01-20T14:04:14.626Z,196.00
2018-01-20T14:05:14.608Z,188.00
2018-01-20T14:06:14.635Z,184.00
2018-01-20T14:07:14.646Z,176.00
2018-01-20T14:08:14.610Z,160.00
2018-01-20T14:09:15.021Z,148.00
2018-01-20T14:10:14.617Z,148.00
2018-01-20T14:11:14.598Z,144.00
2018-01-20T14:12:14.581Z,140.00
2018-01-20T14:13:14.560Z,136.00
2018-01-20T14:14:14.576Z,140.00
2018-01-20T14:15:14.572Z,144.00
2018-01-20T14:16:14.603Z,152.00
2018-01-20T14:17:14.542Z,152.00
2018-01-20T14:18:14.551Z,152.00
2018-01-20T14:19:14.564Z,156.00
2018-01-20T14:20:14.526Z,160.00
2018-01-20T14:21:14.504Z,152.00
2018-01-20T14:22:14.502Z,148.00
2018-01-20T14:23:15.880Z,140.00
2018-01-20T14:24:14.542Z,140.00
2018-01-20T14:25:14.536Z,148.00
2018-01-20T14:26:14.486Z,156.00
2018-01-20T14:27:14.482Z,160.00
2018-01-20T14:28:14.472Z,156.00
2018-01-20T14:29:16.096Z,144.00
2018-01-20T14:30:14.487Z,140.00
2018-01-20T14:31:14.503Z,144.00
2018-01-20T14:32:14.446Z,152.00
2018-01-20T14:33:14.494Z,160.00
2018-01-20T14:34:14.430Z,152.00
2018-01-20T14:35:14.418Z,136.00
2018-01-20T14:36:15.247Z,128.00
2018-01-20T14:37:14.428Z,120.00
2018-01-20T14:38:14.400Z,108.00
2018-01-20T14:39:14.415Z,116.00
2018-01-20T14:40:14.432Z,128.00
2018-01-20T14:41:14.399Z,132.00
2018-01-20T14:42:14.374Z,132.00
2018-01-20T14:43:14.389Z,124.00
2018-01-20T14:44:14.374Z,112.00
2018-01-20T14:45:14.397Z,100.00
2018-01-20T14:46:14.375Z,96.00
2018-01-20T14:47:14.373Z,100.00
2018-01-20T14:48:14.364Z,100.00
2018-01-20T14:49:14.361Z,92.00
2018-01-20T14:50:17.873Z,84.00
2018-01-20T14:51:14.389Z,76.00
2018-01-20T14:52:14.343Z,72.00
2018-01-20T14:53:14.317Z,64.00
2018-01-20T14:54:14.308Z,60.00
2018-01-20T14:55:14.301Z,60.00
2018-01-20T14:56:14.322Z,60.00
2018-01-20T14:57:14.306Z,64.00
2018-01-20T14:58:14.302Z,64.00
2018-01-20T14:59:14.263Z,64.00
2018-01-20T15:00:17.427Z,68.00
2018-01-20T15:01:14.720Z,72.00
2018-01-20T15:02:14.392Z,68.00
2018-01-20T15:03:14.270Z,68.00
2018-01-20T15:04:14.276Z,64.00
2018-01-20T15:05:14.277Z,68.00
2018-01-20T15:06:14.338Z,60.00
2018-01-20T15:07:17.296Z,60.00
2018-01-20T15:08:14.232Z,60.00
2018-01-20T15:09:16.476Z,60.00
2018-01-20T15:10:14.225Z,60.00
2018-01-20T15:11:14.195Z,56.00
2018-01-20T15:12:14.190Z,32.00
2018-01-20T15:13:14.179Z,40.00
2018-01-20T15:14:14.231Z,36.00
2018-01-20T15:15:14.158Z,32.00
2018-01-20T15:16:20.720Z,36.00
2018-01-20T15:17:14.213Z,36.00
2018-01-20T15:18:14.156Z,32.00
2018-01-20T15:19:14.169Z,36.00
2018-01-20T15:20:14.180Z,32.00
2018-01-20T15:21:14.126Z,32.00
2018-01-20T15:22:14.112Z,32.00
2018-01-20T15:23:14.406Z,28.00
2018-01-20T15:24:14.109Z,28.00
2018-01-20T15:25:14.135Z,24.00
2018-01-20T15:26:14.141Z,24.00
2018-01-20T15:27:14.115Z,24.00
2018-01-20T15:28:14.073Z,28.00
2018-01-20T15:29:14.092Z,32.00
2018-01-20T15:30:14.438Z,32.00
2018-01-20T15:31:14.147Z,32.00
2018-01-20T15:32:14.064Z,32.00
2018-01-20T15:33:14.099Z,32.00
2018-01-20T15:34:14.131Z,36.00
2018-01-20T15:35:14.031Z,32.00
2018-01-20T15:36:14.103Z,28.00
2018-01-20T15:37:14.838Z,28.00
2018-01-20T15:38:14.032Z,24.00
2018-01-20T15:39:14.054Z,24.00
2018-01-20T15:40:14.005Z,24.00
2018-01-20T15:41:14.039Z,16.00
2018-01-20T15:42:14.017Z,12.00
2018-01-20T15:43:14.020Z,12.00
2018-01-20T15:44:14.067Z,12.00
2018-01-20T15:45:14.032Z,12.00
2018-01-20T15:46:14.057Z,8.00
2018-01-20T15:47:13.990Z,8.00
2018-01-20T15:48:13.996Z,8.00
2018-01-20T15:49:13.956Z,8.00
2018-01-20T15:50:13.986Z,4.00
2018-01-20T15:51:20.720Z,8.00
2018-01-20T15:52:13.933Z,8.00
2018-01-20T15:53:13.901Z,8.00
2018-01-20T15:54:13.947Z,4.00
2018-01-20T15:55:13.917Z,4.00
2018-01-20T15:56:13.897Z,4.00
2018-01-20T15:57:13.911Z,4.00
2018-01-20T15:58:13.925Z,8.00
2018-01-20T15:59:13.886Z,4.00
2018-01-20T16:00:13.891Z,4.00
2018-01-20T16:01:13.870Z,4.00
2018-01-20T16:02:13.854Z,4.00
2018-01-20T16:03:14.766Z,4.00
2018-01-20T16:04:14.007Z,0.00
2018-01-20T16:05:13.895Z,0.00
2018-01-20T16:06:13.878Z,4.00
2018-01-20T16:07:13.863Z,4.00
2018-01-20T16:08:15.536Z,4.00
2018-01-20T16:09:15.796Z,0.00
2018-01-20T16:10:16.373Z,0.00
2018-01-20T16:11:14.345Z,0.00
2018-01-20T16:12:13.826Z,0.00
2018-01-20T16:13:13.789Z,0.00
2018-01-20T16:14:13.759Z,0.00
2018-01-20T16:15:13.835Z,0.00
2018-01-20T16:16:13.735Z,0.00
2018-01-20T16:17:13.832Z,0.00
2018-01-20T16:18:13.897Z,0.00
2018-01-20T16:19:13.719Z,0.00
2018-01-20T16:20:13.709Z,0.00
2018-01-20T16:21:13.737Z,0.00
2018-01-20T16:22:13.740Z,0.00
2018-01-20T16:23:13.741Z,0.00
2018-01-20T16:24:13.693Z,0.00
2018-01-20T16:25:13.702Z,0.00
2018-01-20T16:26:13.721Z,0.00
2018-01-20T16:27:13.672Z,0.00
2018-01-20T16:28:14.648Z,0.00
2018-01-20T16:29:13.673Z,0.00
2018-01-20T16:30:13.670Z,0.00
2018-01-20T16:31:13.659Z,0.00
2018-01-20T16:32:13.682Z,0.00
2018-01-20T16:33:13.651Z,0.00
2018-01-20T16:34:13.627Z,0.00
2018-01-20T16:35:13.651Z,0.00
2018-01-20T16:36:13.623Z,0.00
2018-01-20T16:37:13.603Z,0.00
2018-01-20T16:38:13.598Z,0.00
2018-01-20T16:39:13.587Z,0.00
2018-01-20T16:40:13.624Z,0.00
2018-01-20T16:41:13.590Z,0.00
2018-01-20T16:42:13.546Z,0.00
2018-01-20T16:43:15.220Z,0.00
2018-01-20T16:44:13.535Z,0.00
2018-01-20T16:45:13.582Z,0.00
2018-01-20T16:46:13.541Z,0.00
2018-01-20T16:47:13.549Z,0.00
2018-01-20T16:48:13.512Z,0.00
2018-01-20T16:49:13.485Z,0.00
2018-01-20T16:50:15.198Z,0.00
2018-01-20T16:51:13.476Z,0.00
2018-01-20T16:52:13.472Z,0.00
2018-01-20T16:53:13.463Z,0.00
2018-01-20T16:54:13.441Z,0.00
2018-01-20T16:55:13.647Z,0.00
2018-01-20T16:56:13.470Z,0.00
2018-01-20T16:57:13.458Z,0.00
2018-01-20T16:58:13.415Z,0.00
2018-01-20T16:59:13.410Z,0.00
2018-01-20T17:00:13.451Z,0.00
2018-01-20T17:01:13.421Z,0.00
2018-01-20T17:02:13.421Z,0.00
2018-01-20T17:03:13.387Z,0.00
2018-01-20T17:05:34.500Z,0.00
2018-01-20T17:06:34.517Z,0.00
2018-01-20T17:07:34.428Z,0.00
2018-01-20T17:08:34.395Z,0.00
2018-01-20T17:09:34.686Z,0.00
2018-01-20T17:10:34.658Z,0.00
2018-01-20T17:11:36.976Z,0.00
2018-01-20T17:12:34.983Z,0.00
2018-01-20T17:13:34.359Z,0.00
2018-01-20T17:14:34.361Z,0.00
2018-01-20T17:15:34.337Z,0.00
2018-01-20T17:16:34.342Z,0.00
2018-01-20T17:17:34.443Z,0.00
2018-01-20T17:18:34.473Z,0.00
2018-01-20T17:19:34.900Z,0.00
2018-01-20T17:20:34.320Z,0.00
2018-01-20T17:21:34.289Z,0.00
2018-01-20T17:22:34.302Z,0.00
2018-01-20T17:23:34.283Z,0.00
2018-01-20T17:24:34.304Z,0.00
2018-01-20T17:25:34.298Z,0.00
2018-01-20T17:26:34.305Z,0.00
2018-01-20T17:27:34.266Z,0.00
2018-01-20T17:28:34.304Z,0.00
2018-01-20T17:29:34.248Z,0.00
2018-01-20T17:30:34.240Z,0.00
2018-01-20T17:31:34.247Z,0.00
2018-01-20T17:32:34.469Z,0.00
2018-01-20T17:33:34.979Z,0.00
2018-01-20T17:34:34.971Z,0.00
2018-01-20T17:35:34.872Z,0.00
2018-01-20T17:36:34.225Z,0.00
2018-01-20T17:37:34.168Z,0.00
2018-01-20T17:38:34.192Z,0.00
2018-01-20T17:39:34.196Z,0.00
2018-01-20T17:40:34.208Z,0.00
2018-01-20T17:41:34.171Z,0.00
2018-01-20T17:42:34.206Z,0.00
2018-01-20T17:43:34.125Z,0.00
2018-01-20T17:44:34.153Z,0.00
2018-01-20T17:45:34.141Z,0.00
2018-01-20T17:46:34.159Z,0.00
2018-01-20T17:47:34.176Z,0.00
2018-01-20T17:48:34.206Z,0.00
2018-01-20T17:49:34.145Z,0.00
2018-01-20T17:50:34.151Z,0.00
2018-01-20T17:51:34.118Z,0.00
2018-01-20T17:52:34.119Z,0.00
2018-01-20T17:53:34.172Z,0.00
2018-01-20T17:54:34.172Z,0.00
2018-01-20T17:55:34.098Z,0.00
2018-01-20T17:56:35.148Z,0.00
2018-01-20T17:57:34.127Z,0.00
2018-01-20T17:58:34.097Z,0.00
2018-01-20T17:59:34.071Z,0.00
2018-01-20T18:00:34.197Z,0.00
2018-01-20T18:01:34.016Z,0.00
2018-01-20T18:02:34.019Z,0.00
2018-01-20T18:03:33.988Z,0.00
2018-01-20T18:04:34.084Z,0.00
2018-01-20T18:05:34.500Z,0.00
2018-01-20T18:06:33.964Z,0.00
2018-01-20T18:07:34.922Z,0.00
2018-01-20T18:08:34.071Z,0.00
2018-01-20T18:09:33.984Z,0.00
2018-01-20T18:10:33.987Z,0.00
2018-01-20T18:11:33.963Z,0.00
2018-01-20T18:12:33.937Z,0.00
2018-01-20T18:13:34.015Z,0.00
2018-01-20T18:14:34.386Z,0.00
2018-01-20T18:15:33.928Z,0.00
2018-01-20T18:16:34.316Z,0.00
2018-01-20T18:18:55.097Z,0.00
2018-01-20T18:19:54.971Z,0.00
2018-01-20T18:20:55.032Z,0.00
2018-01-20T18:21:54.907Z,0.00
2018-01-20T18:22:55.051Z,0.00
2018-01-20T18:23:54.932Z,0.00
2018-01-20T18:24:54.892Z,0.00
2018-01-20T18:25:54.939Z,0.00
2018-01-20T18:26:54.890Z,0.00
2018-01-20T18:27:54.945Z,0.00
2018-01-20T18:28:54.854Z,0.00
2018-01-20T18:29:54.875Z,0.00
2018-01-20T18:30:54.833Z,0.00
2018-01-20T18:31:54.827Z,0.00
2018-01-20T18:32:54.825Z,0.00
2018-01-20T18:33:54.823Z,0.00
2018-01-20T18:34:54.804Z,0.00
2018-01-20T18:35:54.783Z,0.00
2018-01-20T18:36:54.805Z,0.00
2018-01-20T18:37:54.782Z,0.00
2018-01-20T18:38:54.785Z,0.00
2018-01-20T18:39:54.850Z,0.00
2018-01-20T18:40:54.753Z,0.00
2018-01-20T18:41:54.776Z,0.00
2018-01-20T18:42:54.758Z,0.00
2018-01-20T18:43:54.726Z,0.00
2018-01-20T18:44:55.758Z,0.00
2018-01-20T18:45:54.767Z,0.00
2018-01-20T18:46:54.763Z,0.00
2018-01-20T18:47:54.777Z,0.00
2018-01-20T18:48:54.694Z,0.00
2018-01-20T18:49:54.766Z,0.00
2018-01-20T18:50:55.294Z,0.00
2018-01-20T18:51:54.770Z,0.00
2018-01-20T18:52:54.670Z,0.00
2018-01-20T18:53:54.677Z,0.00
2018-01-20T18:54:54.716Z,0.00
2018-01-20T18:55:54.637Z,0.00
2018-01-20T18:56:54.759Z,0.00
2018-01-20T18:57:54.675Z,0.00
2018-01-20T18:58:54.724Z,0.00
2018-01-20T18:59:54.653Z,0.00
2018-01-20T19:00:54.878Z,0.00
2018-01-20T19:01:57.599Z,0.00
2018-01-20T19:02:58.087Z,0.00
2018-01-20T19:03:54.579Z,0.00
2018-01-20T19:04:54.748Z,0.00
2018-01-20T19:05:54.613Z,0.00
2018-01-20T19:06:54.697Z,0.00
2018-01-20T19:07:54.651Z,0.00
2018-01-20T19:08:54.588Z,0.00
2018-01-20T19:09:54.550Z,0.00
2018-01-20T19:10:54.584Z,0.00
2018-01-20T19:11:54.540Z,0.00
2018-01-20T19:12:54.565Z,0.00
2018-01-20T19:13:54.575Z,0.00
2018-01-20T19:14:54.541Z,0.00
2018-01-20T19:15:54.640Z,0.00
2018-01-20T19:16:54.980Z,0.00
2018-01-20T19:17:54.809Z,0.00
2018-01-20T19:18:54.501Z,0.00
2018-01-20T19:19:54.514Z,0.00
2018-01-20T19:20:54.480Z,0.00
2018-01-20T19:21:55.099Z,0.00
2018-01-20T19:22:54.527Z,0.00
2018-01-20T19:23:55.396Z,0.00
2018-01-20T19:25:01.749Z,0.00
2018-01-20T19:25:55.348Z,0.00
2018-01-20T19:26:55.821Z,0.00
2018-01-20T19:27:54.484Z,0.00
2018-01-20T19:28:54.694Z,0.00
2018-01-20T19:29:54.515Z,0.00
2018-01-20T19:32:35.279Z,0.00
2018-01-20T19:33:35.691Z,0.00
2018-01-20T19:34:35.227Z,0.00
2018-01-20T19:35:35.153Z,0.00
2018-01-20T19:36:35.818Z,0.00
2018-01-20T19:37:37.274Z,0.00
2018-01-20T19:38:35.101Z,0.00
2018-01-20T19:39:45.008Z,0.00
2018-01-20T19:41:30.516Z,0.00
2018-01-20T19:42:30.494Z,0.00
2018-01-20T19:43:30.481Z,0.00
2018-01-20T19:44:30.976Z,0.00
2018-01-20T19:45:30.592Z,0.00
2018-01-20T19:46:30.428Z,0.00
2018-01-20T19:47:30.464Z,0.00
2018-01-20T19:48:30.461Z,0.00
2018-01-20T19:49:30.442Z,0.00
2018-01-20T19:50:30.392Z,0.00
2018-01-20T19:51:30.395Z,0.00
2018-01-20T19:52:30.408Z,0.00
2018-01-20T19:53:31.022Z,0.00
2018-01-20T19:54:30.364Z,0.00
2018-01-20T19:55:30.399Z,0.00
2018-01-20T19:56:30.390Z,0.00
2018-01-20T19:57:30.419Z,0.00
2018-01-20T19:58:30.358Z,0.00
2018-01-20T19:59:30.332Z,0.00
2018-01-20T20:00:30.339Z,0.00
2018-01-20T20:01:30.317Z,0.00
2018-01-20T20:02:30.310Z,0.00
2018-01-20T20:03:30.310Z,0.00
2018-01-20T20:04:30.353Z,0.00
2018-01-20T20:05:30.321Z,0.00
2018-01-20T20:06:30.282Z,0.00
2018-01-20T20:07:30.396Z,0.00
2018-01-20T20:08:30.584Z,0.00
2018-01-20T20:09:30.290Z,0.00
2018-01-20T20:10:30.247Z,0.00
2018-01-20T20:11:30.439Z,0.00
2018-01-20T20:12:30.395Z,0.00
2018-01-20T20:13:30.437Z,0.00
2018-01-20T20:14:30.559Z,0.00
2018-01-20T20:15:30.287Z,0.00
2018-01-20T20:16:30.453Z,0.00
2018-01-20T20:17:30.741Z,0.00
2018-01-20T20:18:30.536Z,0.00
2018-01-20T20:19:30.325Z,0.00
2018-01-20T20:20:30.346Z,0.00
2018-01-20T20:21:30.718Z,0.00
2018-01-20T20:22:30.527Z,0.00
2018-01-20T20:23:30.640Z,0.00
2018-01-20T20:24:30.902Z,0.00
2018-01-20T20:25:30.685Z,0.00
2018-01-20T20:26:30.272Z,0.00
2018-01-20T20:27:30.878Z,0.00
2018-01-20T20:28:30.233Z,0.00
2018-01-20T20:29:30.340Z,0.00
2018-01-20T20:30:30.142Z,0.00
2018-01-20T20:31:30.230Z,0.00
2018-01-20T20:32:30.227Z,0.00
2018-01-20T20:34:53.699Z,0.00
2018-01-20T20:35:54.280Z,0.00
2018-01-20T20:36:53.727Z,0.00
2018-01-20T20:37:53.842Z,0.00
2018-01-20T20:38:53.590Z,0.00
2018-01-20T20:39:53.634Z,0.00
2018-01-20T20:40:53.425Z,0.00
2018-01-20T20:41:53.598Z,0.00
2018-01-20T20:42:53.257Z,0.00
2018-01-20T20:44:02.348Z,0.00
2018-01-20T20:45:56.513Z,0.00
2018-01-20T20:46:46.996Z,0.00
2018-01-20T20:47:46.622Z,0.00
2018-01-20T20:48:46.732Z,0.00
2018-01-20T20:49:46.705Z,0.00
2018-01-20T20:50:46.586Z,0.00
2018-01-20T20:51:46.536Z,0.00
2018-01-20T20:52:46.498Z,0.00
2018-01-20T20:53:46.567Z,0.00
2018-01-20T20:54:55.794Z,0.00
2018-01-20T20:56:40.134Z,0.00
2018-01-20T20:57:49.118Z,0.00
2018-01-20T20:59:34.761Z,0.00
2018-01-20T21:00:34.536Z,0.00
2018-01-20T21:01:34.542Z,0.00
2018-01-20T21:02:34.810Z,0.00
2018-01-20T21:03:34.545Z,0.00
2018-01-20T21:04:34.372Z,0.00
2018-01-20T21:05:34.403Z,0.00
2018-01-20T21:06:34.484Z,0.00
2018-01-20T21:07:34.344Z,0.00
2018-01-20T21:08:34.409Z,0.00
2018-01-20T21:09:34.355Z,0.00
2018-01-20T21:10:34.388Z,0.00
2018-01-20T21:11:34.481Z,0.00
2018-01-20T21:12:34.403Z,0.00
2018-01-20T21:13:34.306Z,0.00
2018-01-20T21:14:34.433Z,0.00
2018-01-20T21:15:34.325Z,0.00
2018-01-20T21:16:34.333Z,0.00
2018-01-20T21:17:34.328Z,0.00
2018-01-20T21:18:34.328Z,0.00
2018-01-20T21:19:34.294Z,0.00
2018-01-20T21:20:34.244Z,0.00
2018-01-20T21:21:34.348Z,0.00
2018-01-20T21:22:34.262Z,0.00
2018-01-20T21:23:34.233Z,0.00
2018-01-20T21:24:34.290Z,0.00
2018-01-20T21:25:34.219Z,0.00
2018-01-20T21:26:34.239Z,0.00
2018-01-20T21:27:34.256Z,0.00
2018-01-20T21:28:34.710Z,0.00
2018-01-20T21:29:34.211Z,0.00
2018-01-20T21:30:34.305Z,0.00
2018-01-20T21:31:34.198Z,0.00
2018-01-20T21:32:34.181Z,0.00
2018-01-20T21:33:34.164Z,0.00
2018-01-20T21:34:34.153Z,0.00
2018-01-20T21:35:34.514Z,0.00
2018-01-20T21:36:34.360Z,0.00
2018-01-20T21:37:35.360Z,0.00
2018-01-20T21:38:34.339Z,0.00
2018-01-20T21:39:34.354Z,0.00
2018-01-20T21:40:34.488Z,0.00
2018-01-20T21:41:34.254Z,0.00
2018-01-20T21:42:34.555Z,0.00
2018-01-20T21:43:34.925Z,0.00
2018-01-20T21:44:34.125Z,0.00
2018-01-20T21:45:34.258Z,0.00
2018-01-20T21:46:34.150Z,0.00
2018-01-20T21:47:34.753Z,0.00
2018-01-20T21:48:34.115Z,0.00
2018-01-20T21:49:34.184Z,0.00
2018-01-20T21:50:34.187Z,0.00
2018-01-20T21:51:34.182Z,0.00
2018-01-20T21:52:34.028Z,0.00
2018-01-20T21:53:34.214Z,0.00
2018-01-20T21:54:34.150Z,0.00
2018-01-20T21:55:34.060Z,0.00
2018-01-20T21:56:43.169Z,0.00
2018-01-20T21:58:28.754Z,0.00
2018-01-20T21:59:28.714Z,0.00
2018-01-20T22:00:28.670Z,0.00
2018-01-20T22:01:28.348Z,0.00
2018-01-20T22:02:28.572Z,0.00
2018-01-20T22:03:28.490Z,0.00
2018-01-20T22:04:28.389Z,0.00
2018-01-20T22:05:28.376Z,0.00
2018-01-20T22:06:28.316Z,0.00
2018-01-20T22:07:28.459Z,0.00
2018-01-20T22:08:28.407Z,0.00
2018-01-20T22:09:28.296Z,0.00
2018-01-20T22:10:28.423Z,0.00
2018-01-20T22:11:28.295Z,0.00
2018-01-20T22:12:28.296Z,0.00
2018-01-20T22:13:28.262Z,0.00
2018-01-20T22:14:28.341Z,0.00
2018-01-20T22:15:28.301Z,0.00
2018-01-20T22:16:28.305Z,0.00
2018-01-20T22:17:28.283Z,0.00
2018-01-20T22:18:28.317Z,0.00
2018-01-20T22:19:28.262Z,0.00
2018-01-20T22:20:28.326Z,0.00
2018-01-20T22:21:28.242Z,0.00
2018-01-20T22:22:28.232Z,0.00
2018-01-20T22:23:28.225Z,0.00
2018-01-20T22:24:28.652Z,0.00
2018-01-20T22:25:28.187Z,0.00
2018-01-20T22:26:28.219Z,0.00
2018-01-20T22:27:28.225Z,0.00
2018-01-20T22:28:28.178Z,0.00
2018-01-20T22:29:28.145Z,0.00
2018-01-20T22:30:28.147Z,0.00
2018-01-20T22:31:28.156Z,0.00
2018-01-20T22:32:28.144Z,0.00
2018-01-20T22:33:28.173Z,0.00
2018-01-20T22:34:28.149Z,0.00
2018-01-20T22:35:28.142Z,0.00
2018-01-20T22:36:28.127Z,0.00
2018-01-20T22:38:53.668Z,0.00
2018-01-20T22:39:53.628Z,0.00
2018-01-20T22:40:53.317Z,0.00
2018-01-20T22:41:53.648Z,0.00
2018-01-20T22:42:52.860Z,0.00
2018-01-20T22:43:52.767Z,0.00
2018-01-20T22:44:52.939Z,0.00
2018-01-20T22:45:52.747Z,0.00
2018-01-20T22:46:52.945Z,0.00
2018-01-20T22:47:52.788Z,0.00
2018-01-20T22:48:52.735Z,0.00
2018-01-20T22:49:52.731Z,0.00
2018-01-20T22:50:52.700Z,0.00
2018-01-20T22:51:52.699Z,0.00
2018-01-20T22:52:52.669Z,0.00
2018-01-20T22:53:52.660Z,0.00
2018-01-20T22:54:52.670Z,0.00
2018-01-20T22:55:52.670Z,0.00
2018-01-20T22:56:52.661Z,0.00
2018-01-20T22:57:52.671Z,0.00
2018-01-20T22:58:52.626Z,0.00
2018-01-20T22:59:52.614Z,0.00
2018-01-20T23:00:52.671Z,0.00
2018-01-20T23:01:52.585Z,0.00
2018-01-20T23:02:52.674Z,0.00
2018-01-20T23:03:52.592Z,0.00
2018-01-20T23:04:52.624Z,0.00
2018-01-20T23:05:52.720Z,0.00
2018-01-20T23:06:52.606Z,0.00
2018-01-20T23:07:52.555Z,0.00
2018-01-20T23:08:52.587Z,0.00
2018-01-20T23:11:46.412Z,0.00
2018-01-20T23:12:45.944Z,0.00
2018-01-20T23:13:48.719Z,0.00
2018-01-20T23:14:46.584Z,0.00
2018-01-20T23:15:46.313Z,0.00
2018-01-20T23:16:45.948Z,0.00
2018-01-20T23:17:45.960Z,0.00
2018-01-20T23:18:45.898Z,0.00
2018-01-20T23:19:45.889Z,0.00
2018-01-20T23:20:45.898Z,0.00
2018-01-20T23:21:45.829Z,0.00
2018-01-20T23:22:45.928Z,0.00
2018-01-20T23:23:45.857Z,0.00
2018-01-20T23:24:45.840Z,0.00
2018-01-20T23:25:45.887Z,0.00
2018-01-20T23:26:45.845Z,0.00
2018-01-20T23:27:45.891Z,0.00
2018-01-20T23:28:45.784Z,0.00
2018-01-20T23:29:45.794Z,0.00
2018-01-20T23:30:45.930Z,0.00
2018-01-20T23:31:45.802Z,0.00
2018-01-20T23:32:46.006Z,0.00
2018-01-20T23:33:45.767Z,0.00
2018-01-20T23:34:45.969Z,0.00
2018-01-20T23:35:46.390Z,0.00
2018-01-20T23:36:45.842Z,0.00
2018-01-20T23:37:45.721Z,0.00
2018-01-20T23:38:45.792Z,0.00
2018-01-20T23:39:45.809Z,0.00
2018-01-20T23:40:46.196Z,0.00
2018-01-20T23:41:45.739Z,0.00
2018-01-20T23:42:45.668Z,0.00
2018-01-20T23:43:45.667Z,0.00
2018-01-20T23:44:45.707Z,0.00
2018-01-20T23:45:45.658Z,0.00
2018-01-20T23:46:45.746Z,0.00
2018-01-20T23:47:45.783Z,0.00
2018-01-20T23:48:45.692Z,0.00
2018-01-20T23:49:45.684Z,0.00
2018-01-20T23:50:45.668Z,0.00
2018-01-20T23:51:45.603Z,0.00
2018-01-20T23:52:45.619Z,0.00
2018-01-20T23:53:45.612Z,0.00
2018-01-20T23:54:45.600Z,0.00
2018-01-20T23:55:45.606Z,0.00
2018-01-20T23:56:45.655Z,0.00
2018-01-20T23:57:45.675Z,0.00
2018-01-20T23:58:45.595Z,0.00
2018-01-20T23:59:45.700Z,0.00
